sensor_id;sensor_type;location;lat;lon;timestamp;P1;durP1;ratioP1;P2;durP2;ratioP2
13445;SDS011;6795;51.232;3.764;2023-09-30T00:01:01;68.88;;;35.03;;
13445;SDS011;6795;51.232;3.764;2023-09-30T00:03:29;67.65;;;35.72;;
13445;SDS011;6795;51.232;3.764;2023-09-30T00:06:00;62.15;;;33.45;;
13445;SDS011;6795;51.232;3.764;2023-09-30T00:08:32;63.63;;;34.17;;
13445;SDS011;6795;51.232;3.764;2023-09-30T00:11:01;67.05;;;33.78;;
13445;SDS011;6795;51.232;3.764;2023-09-30T00:13:31;68.70;;;35.17;;
13445;SDS011;6795;51.232;3.764;2023-09-30T00:16:00;74.47;;;35.13;;
13445;SDS011;6795;51.232;3.764;2023-09-30T00:18:29;65.78;;;33.42;;
13445;SDS011;6795;51.232;3.764;2023-09-30T00:20:57;62.47;;;33.13;;
13445;SDS011;6795;51.232;3.764;2023-09-30T00:23:27;64.90;;;34.28;;
13445;SDS011;6795;51.232;3.764;2023-09-30T00:25:56;74.05;;;35.97;;
13445;SDS011;6795;51.232;3.764;2023-09-30T00:28:25;70.35;;;35.78;;
13445;SDS011;6795;51.232;3.764;2023-09-30T00:30:54;64.60;;;33.55;;
13445;SDS011;6795;51.232;3.764;2023-09-30T00:33:23;71.18;;;33.92;;
13445;SDS011;6795;51.232;3.764;2023-09-30T00:35:52;77.32;;;35.20;;
13445;SDS011;6795;51.232;3.764;2023-09-30T00:38:23;66.72;;;34.03;;
13445;SDS011;6795;51.232;3.764;2023-09-30T00:40:53;62.17;;;34.17;;
13445;SDS011;6795;51.232;3.764;2023-09-30T00:43:22;67.05;;;35.22;;
13445;SDS011;6795;51.232;3.764;2023-09-30T00:45:51;76.75;;;35.50;;
13445;SDS011;6795;51.232;3.764;2023-09-30T00:48:21;78.40;;;42.40;;
13445;SDS011;6795;51.232;3.764;2023-09-30T00:50:52;72.03;;;35.70;;
13445;SDS011;6795;51.232;3.764;2023-09-30T00:53:22;73.18;;;35.45;;
13445;SDS011;6795;51.232;3.764;2023-09-30T00:55:51;81.22;;;38.45;;
13445;SDS011;6795;51.232;3.764;2023-09-30T00:58:22;73.55;;;36.45;;
13445;SDS011;6795;51.232;3.764;2023-09-30T01:00:52;73.20;;;36.22;;
13445;SDS011;6795;51.232;3.764;2023-09-30T01:03:21;86.60;;;39.33;;
13445;SDS011;6795;51.232;3.764;2023-09-30T01:05:51;79.63;;;38.88;;
13445;SDS011;6795;51.232;3.764;2023-09-30T01:08:20;81.75;;;42.80;;
13445;SDS011;6795;51.232;3.764;2023-09-30T01:10:48;81.03;;;41.30;;
13445;SDS011;6795;51.232;3.764;2023-09-30T01:13:17;75.18;;;36.53;;
13445;SDS011;6795;51.232;3.764;2023-09-30T01:15:47;74.47;;;37.65;;
13445;SDS011;6795;51.232;3.764;2023-09-30T01:18:16;84.75;;;36.67;;
13445;SDS011;6795;51.232;3.764;2023-09-30T01:20:45;83.10;;;37.17;;
13445;SDS011;6795;51.232;3.764;2023-09-30T01:23:15;78.75;;;38.97;;
13445;SDS011;6795;51.232;3.764;2023-09-30T01:25:44;81.05;;;35.85;;
13445;SDS011;6795;51.232;3.764;2023-09-30T01:28:12;77.82;;;43.30;;
13445;SDS011;6795;51.232;3.764;2023-09-30T01:30:42;88.45;;;37.63;;
13445;SDS011;6795;51.232;3.764;2023-09-30T01:33:11;90.38;;;44.28;;
13445;SDS011;6795;51.232;3.764;2023-09-30T01:35:40;71.22;;;37.08;;
13445;SDS011;6795;51.232;3.764;2023-09-30T01:38:09;77.03;;;36.10;;
13445;SDS011;6795;51.232;3.764;2023-09-30T01:40:39;74.70;;;36.88;;
13445;SDS011;6795;51.232;3.764;2023-09-30T01:43:08;71.55;;;34.40;;
13445;SDS011;6795;51.232;3.764;2023-09-30T01:45:42;70.20;;;33.38;;
13445;SDS011;6795;51.232;3.764;2023-09-30T01:48:14;79.22;;;35.45;;
13445;SDS011;6795;51.232;3.764;2023-09-30T01:50:43;77.18;;;35.13;;
13445;SDS011;6795;51.232;3.764;2023-09-30T01:53:11;78.72;;;37.50;;
13445;SDS011;6795;51.232;3.764;2023-09-30T01:55:42;94.82;;;38.92;;
13445;SDS011;6795;51.232;3.764;2023-09-30T01:58:11;81.30;;;37.95;;
13445;SDS011;6795;51.232;3.764;2023-09-30T02:00:39;82.43;;;37.45;;
13445;SDS011;6795;51.232;3.764;2023-09-30T02:03:08;77.80;;;38.83;;
13445;SDS011;6795;51.232;3.764;2023-09-30T02:05:38;78.88;;;36.78;;
13445;SDS011;6795;51.232;3.764;2023-09-30T02:08:07;78.40;;;36.33;;
13445;SDS011;6795;51.232;3.764;2023-09-30T02:10:36;76.03;;;35.92;;
13445;SDS011;6795;51.232;3.764;2023-09-30T02:13:06;84.07;;;37.63;;
13445;SDS011;6795;51.232;3.764;2023-09-30T02:15:34;92.78;;;38.90;;
13445;SDS011;6795;51.232;3.764;2023-09-30T02:18:03;80.40;;;37.47;;
13445;SDS011;6795;51.232;3.764;2023-09-30T02:20:32;82.93;;;38.75;;
13445;SDS011;6795;51.232;3.764;2023-09-30T02:23:01;85.22;;;37.40;;
13445;SDS011;6795;51.232;3.764;2023-09-30T02:25:32;81.13;;;37.75;;
13445;SDS011;6795;51.232;3.764;2023-09-30T02:28:01;80.45;;;37.97;;
13445;SDS011;6795;51.232;3.764;2023-09-30T02:30:31;83.82;;;38.10;;
13445;SDS011;6795;51.232;3.764;2023-09-30T02:33:00;80.88;;;37.13;;
13445;SDS011;6795;51.232;3.764;2023-09-30T02:35:29;87.82;;;35.42;;
13445;SDS011;6795;51.232;3.764;2023-09-30T02:37:57;87.57;;;38.25;;
13445;SDS011;6795;51.232;3.764;2023-09-30T02:40:27;89.53;;;38.28;;
13445;SDS011;6795;51.232;3.764;2023-09-30T02:42:55;95.40;;;37.17;;
13445;SDS011;6795;51.232;3.764;2023-09-30T02:45:24;75.78;;;34.67;;
13445;SDS011;6795;51.232;3.764;2023-09-30T02:47:54;88.22;;;35.00;;
13445;SDS011;6795;51.232;3.764;2023-09-30T02:50:25;82.15;;;34.78;;
13445;SDS011;6795;51.232;3.764;2023-09-30T02:52:54;85.72;;;33.50;;
13445;SDS011;6795;51.232;3.764;2023-09-30T02:55:22;72.45;;;33.90;;
13445;SDS011;6795;51.232;3.764;2023-09-30T02:57:51;85.25;;;35.75;;
13445;SDS011;6795;51.232;3.764;2023-09-30T03:00:21;76.30;;;33.50;;
13445;SDS011;6795;51.232;3.764;2023-09-30T03:02:51;79.25;;;35.67;;
13445;SDS011;6795;51.232;3.764;2023-09-30T03:05:22;86.25;;;35.25;;
13445;SDS011;6795;51.232;3.764;2023-09-30T03:07:50;83.35;;;35.72;;
13445;SDS011;6795;51.232;3.764;2023-09-30T03:10:19;78.65;;;34.38;;
13445;SDS011;6795;51.232;3.764;2023-09-30T03:12:50;81.38;;;33.83;;
13445;SDS011;6795;51.232;3.764;2023-09-30T03:15:19;86.95;;;33.65;;
13445;SDS011;6795;51.232;3.764;2023-09-30T03:17:48;85.68;;;34.53;;
13445;SDS011;6795;51.232;3.764;2023-09-30T03:20:19;80.07;;;34.70;;
13445;SDS011;6795;51.232;3.764;2023-09-30T03:22:49;84.75;;;33.53;;
13445;SDS011;6795;51.232;3.764;2023-09-30T03:25:19;79.15;;;32.88;;
13445;SDS011;6795;51.232;3.764;2023-09-30T03:27:50;97.85;;;36.10;;
13445;SDS011;6795;51.232;3.764;2023-09-30T03:30:18;84.35;;;34.10;;
13445;SDS011;6795;51.232;3.764;2023-09-30T03:32:47;74.45;;;32.75;;
13445;SDS011;6795;51.232;3.764;2023-09-30T03:35:18;80.78;;;33.15;;
13445;SDS011;6795;51.232;3.764;2023-09-30T03:37:49;86.25;;;35.10;;
13445;SDS011;6795;51.232;3.764;2023-09-30T03:40:18;86.45;;;32.95;;
13445;SDS011;6795;51.232;3.764;2023-09-30T03:42:54;85.85;;;33.13;;
13445;SDS011;6795;51.232;3.764;2023-09-30T03:45:23;89.43;;;33.00;;
13445;SDS011;6795;51.232;3.764;2023-09-30T03:47:52;89.10;;;34.50;;
13445;SDS011;6795;51.232;3.764;2023-09-30T03:50:21;104.40;;;41.35;;
13445;SDS011;6795;51.232;3.764;2023-09-30T03:52:52;88.03;;;40.80;;
13445;SDS011;6795;51.232;3.764;2023-09-30T03:55:29;85.38;;;33.63;;
13445;SDS011;6795;51.232;3.764;2023-09-30T03:57:58;89.50;;;35.05;;
13445;SDS011;6795;51.232;3.764;2023-09-30T04:00:27;90.93;;;33.85;;
13445;SDS011;6795;51.232;3.764;2023-09-30T04:02:56;105.93;;;41.00;;
13445;SDS011;6795;51.232;3.764;2023-09-30T04:05:25;102.78;;;41.40;;
13445;SDS011;6795;51.232;3.764;2023-09-30T04:07:57;194.27;;;46.80;;
13445;SDS011;6795;51.232;3.764;2023-09-30T04:10:26;99.65;;;42.80;;
13445;SDS011;6795;51.232;3.764;2023-09-30T04:12:56;77.28;;;37.88;;
13445;SDS011;6795;51.232;3.764;2023-09-30T04:15:25;121.38;;;44.03;;
13445;SDS011;6795;51.232;3.764;2023-09-30T04:17:53;119.50;;;45.15;;
13445;SDS011;6795;51.232;3.764;2023-09-30T04:20:22;201.35;;;48.38;;
13445;SDS011;6795;51.232;3.764;2023-09-30T04:22:53;452.35;;;55.80;;
13445;SDS011;6795;51.232;3.764;2023-09-30T04:25:25;406.88;;;55.40;;
13445;SDS011;6795;51.232;3.764;2023-09-30T04:27:54;135.73;;;43.45;;
13445;SDS011;6795;51.232;3.764;2023-09-30T04:30:24;257.58;;;48.70;;
13445;SDS011;6795;51.232;3.764;2023-09-30T04:32:54;108.85;;;42.60;;
13445;SDS011;6795;51.232;3.764;2023-09-30T04:35:25;157.05;;;44.30;;
13445;SDS011;6795;51.232;3.764;2023-09-30T04:37:53;164.77;;;46.28;;
13445;SDS011;6795;51.232;3.764;2023-09-30T04:40:22;97.43;;;34.45;;
13445;SDS011;6795;51.232;3.764;2023-09-30T04:42:51;175.80;;;36.47;;
13445;SDS011;6795;51.232;3.764;2023-09-30T04:45:22;505.25;;;51.10;;
13445;SDS011;6795;51.232;3.764;2023-09-30T04:47:51;553.38;;;56.35;;
13445;SDS011;6795;51.232;3.764;2023-09-30T04:50:22;428.08;;;49.53;;
13445;SDS011;6795;51.232;3.764;2023-09-30T04:52:51;138.95;;;40.17;;
13445;SDS011;6795;51.232;3.764;2023-09-30T04:55:20;192.40;;;41.40;;
13445;SDS011;6795;51.232;3.764;2023-09-30T04:57:49;84.20;;;36.33;;
13445;SDS011;6795;51.232;3.764;2023-09-30T05:00:19;87.95;;;37.88;;
13445;SDS011;6795;51.232;3.764;2023-09-30T05:02:52;111.70;;;43.95;;
13445;SDS011;6795;51.232;3.764;2023-09-30T05:05:21;119.78;;;44.17;;
13445;SDS011;6795;51.232;3.764;2023-09-30T05:07:50;171.52;;;47.25;;
13445;SDS011;6795;51.232;3.764;2023-09-30T05:10:19;105.05;;;38.78;;
13445;SDS011;6795;51.232;3.764;2023-09-30T05:12:47;632.72;;;59.17;;
13445;SDS011;6795;51.232;3.764;2023-09-30T05:15:20;719.28;;;70.78;;
13445;SDS011;6795;51.232;3.764;2023-09-30T05:17:49;326.13;;;47.53;;
13445;SDS011;6795;51.232;3.764;2023-09-30T05:20:18;272.70;;;47.47;;
13445;SDS011;6795;51.232;3.764;2023-09-30T05:22:47;511.98;;;49.55;;
13445;SDS011;6795;51.232;3.764;2023-09-30T05:25:16;490.77;;;57.40;;
13445;SDS011;6795;51.232;3.764;2023-09-30T05:27:45;459.80;;;58.53;;
13445;SDS011;6795;51.232;3.764;2023-09-30T05:30:15;253.93;;;47.05;;
13445;SDS011;6795;51.232;3.764;2023-09-30T05:32:47;518.78;;;51.90;;
13445;SDS011;6795;51.232;3.764;2023-09-30T05:35:19;402.05;;;42.63;;
13445;SDS011;6795;51.232;3.764;2023-09-30T05:37:50;517.20;;;47.58;;
13445;SDS011;6795;51.232;3.764;2023-09-30T05:40:20;203.60;;;38.88;;
13445;SDS011;6795;51.232;3.764;2023-09-30T05:42:53;895.05;;;78.35;;
13445;SDS011;6795;51.232;3.764;2023-09-30T05:45:24;227.38;;;39.40;;
13445;SDS011;6795;51.232;3.764;2023-09-30T05:47:55;157.40;;;37.03;;
13445;SDS011;6795;51.232;3.764;2023-09-30T05:50:29;200.10;;;36.60;;
13445;SDS011;6795;51.232;3.764;2023-09-30T05:52:58;177.98;;;36.35;;
13445;SDS011;6795;51.232;3.764;2023-09-30T05:55:26;202.95;;;42.67;;
13445;SDS011;6795;51.232;3.764;2023-09-30T05:57:55;668.30;;;65.22;;
13445;SDS011;6795;51.232;3.764;2023-09-30T06:00:27;141.32;;;36.25;;
13445;SDS011;6795;51.232;3.764;2023-09-30T06:02:59;165.25;;;35.63;;
13445;SDS011;6795;51.232;3.764;2023-09-30T06:05:28;230.80;;;41.90;;
13445;SDS011;6795;51.232;3.764;2023-09-30T06:07:58;145.25;;;40.20;;
13445;SDS011;6795;51.232;3.764;2023-09-30T06:10:31;120.50;;;41.35;;
13445;SDS011;6795;51.232;3.764;2023-09-30T06:13:00;136.60;;;40.47;;
13445;SDS011;6795;51.232;3.764;2023-09-30T06:15:29;158.95;;;42.85;;
13445;SDS011;6795;51.232;3.764;2023-09-30T06:18:00;173.10;;;42.53;;
13445;SDS011;6795;51.232;3.764;2023-09-30T06:20:33;105.03;;;38.53;;
13445;SDS011;6795;51.232;3.764;2023-09-30T06:23:02;104.32;;;38.78;;
13445;SDS011;6795;51.232;3.764;2023-09-30T06:25:33;95.40;;;37.40;;
13445;SDS011;6795;51.232;3.764;2023-09-30T06:28:02;137.90;;;44.28;;
13445;SDS011;6795;51.232;3.764;2023-09-30T06:30:31;114.03;;;41.70;;
13445;SDS011;6795;51.232;3.764;2023-09-30T06:33:02;108.68;;;41.15;;
13445;SDS011;6795;51.232;3.764;2023-09-30T06:35:32;124.47;;;37.75;;
13445;SDS011;6795;51.232;3.764;2023-09-30T06:38:04;135.88;;;37.67;;
13445;SDS011;6795;51.232;3.764;2023-09-30T06:40:34;115.82;;;35.90;;
13445;SDS011;6795;51.232;3.764;2023-09-30T06:43:07;111.78;;;37.47;;
13445;SDS011;6795;51.232;3.764;2023-09-30T06:45:36;116.88;;;36.70;;
13445;SDS011;6795;51.232;3.764;2023-09-30T06:48:10;123.00;;;38.05;;
13445;SDS011;6795;51.232;3.764;2023-09-30T06:50:45;112.25;;;37.75;;
13445;SDS011;6795;51.232;3.764;2023-09-30T06:53:15;118.05;;;37.35;;
13445;SDS011;6795;51.232;3.764;2023-09-30T06:55:44;107.78;;;36.30;;
13445;SDS011;6795;51.232;3.764;2023-09-30T06:58:13;111.35;;;36.33;;
13445;SDS011;6795;51.232;3.764;2023-09-30T07:00:47;119.63;;;37.85;;
13445;SDS011;6795;51.232;3.764;2023-09-30T07:03:17;119.50;;;38.22;;
13445;SDS011;6795;51.232;3.764;2023-09-30T07:05:53;119.78;;;37.92;;
13445;SDS011;6795;51.232;3.764;2023-09-30T07:08:26;126.95;;;40.58;;
13445;SDS011;6795;51.232;3.764;2023-09-30T07:10:56;136.75;;;42.10;;
13445;SDS011;6795;51.232;3.764;2023-09-30T07:13:27;136.70;;;40.30;;
13445;SDS011;6795;51.232;3.764;2023-09-30T07:15:58;150.65;;;42.55;;
13445;SDS011;6795;51.232;3.764;2023-09-30T07:18:28;127.93;;;43.53;;
13445;SDS011;6795;51.232;3.764;2023-09-30T07:20:59;145.30;;;42.25;;
13445;SDS011;6795;51.232;3.764;2023-09-30T07:23:29;147.82;;;44.40;;
13445;SDS011;6795;51.232;3.764;2023-09-30T07:25:58;146.30;;;43.92;;
13445;SDS011;6795;51.232;3.764;2023-09-30T07:28:29;156.90;;;45.15;;
13445;SDS011;6795;51.232;3.764;2023-09-30T07:30:59;153.75;;;46.35;;
13445;SDS011;6795;51.232;3.764;2023-09-30T07:33:29;147.57;;;43.72;;
13445;SDS011;6795;51.232;3.764;2023-09-30T07:35:58;140.07;;;46.10;;
13445;SDS011;6795;51.232;3.764;2023-09-30T07:38:26;152.55;;;46.42;;
13445;SDS011;6795;51.232;3.764;2023-09-30T07:40:55;146.25;;;46.92;;
13445;SDS011;6795;51.232;3.764;2023-09-30T07:43:24;133.15;;;44.03;;
13445;SDS011;6795;51.232;3.764;2023-09-30T07:45:52;121.28;;;42.92;;
13445;SDS011;6795;51.232;3.764;2023-09-30T07:48:25;119.63;;;39.97;;
13445;SDS011;6795;51.232;3.764;2023-09-30T07:50:55;111.40;;;41.95;;
13445;SDS011;6795;51.232;3.764;2023-09-30T07:53:23;115.43;;;42.75;;
13445;SDS011;6795;51.232;3.764;2023-09-30T07:55:52;125.20;;;44.30;;
13445;SDS011;6795;51.232;3.764;2023-09-30T07:58:21;115.00;;;40.90;;
13445;SDS011;6795;51.232;3.764;2023-09-30T08:00:49;112.35;;;41.72;;
13445;SDS011;6795;51.232;3.764;2023-09-30T08:03:17;103.65;;;38.67;;
13445;SDS011;6795;51.232;3.764;2023-09-30T08:05:46;105.05;;;37.80;;
13445;SDS011;6795;51.232;3.764;2023-09-30T08:08:16;89.05;;;34.22;;
13445;SDS011;6795;51.232;3.764;2023-09-30T08:10:44;90.25;;;35.13;;
13445;SDS011;6795;51.232;3.764;2023-09-30T08:13:13;90.53;;;36.00;;
13445;SDS011;6795;51.232;3.764;2023-09-30T08:15:41;90.22;;;34.33;;
13445;SDS011;6795;51.232;3.764;2023-09-30T08:18:10;87.47;;;34.25;;
13445;SDS011;6795;51.232;3.764;2023-09-30T08:20:38;88.43;;;33.05;;
13445;SDS011;6795;51.232;3.764;2023-09-30T08:23:07;84.03;;;32.20;;
13445;SDS011;6795;51.232;3.764;2023-09-30T08:25:37;81.93;;;30.63;;
13445;SDS011;6795;51.232;3.764;2023-09-30T08:28:08;83.90;;;30.08;;
13445;SDS011;6795;51.232;3.764;2023-09-30T08:30:37;74.00;;;28.70;;
13445;SDS011;6795;51.232;3.764;2023-09-30T08:33:06;72.75;;;29.67;;
13445;SDS011;6795;51.232;3.764;2023-09-30T08:35:37;73.85;;;28.13;;
13445;SDS011;6795;51.232;3.764;2023-09-30T08:38:06;69.68;;;27.40;;
13445;SDS011;6795;51.232;3.764;2023-09-30T08:40:34;78.90;;;27.50;;
13445;SDS011;6795;51.232;3.764;2023-09-30T08:43:05;84.50;;;29.65;;
13445;SDS011;6795;51.232;3.764;2023-09-30T08:45:37;61.28;;;25.60;;
13445;SDS011;6795;51.232;3.764;2023-09-30T08:48:11;69.18;;;26.15;;
13445;SDS011;6795;51.232;3.764;2023-09-30T08:50:40;63.92;;;27.63;;
13445;SDS011;6795;51.232;3.764;2023-09-30T08:53:13;61.63;;;26.52;;
13445;SDS011;6795;51.232;3.764;2023-09-30T08:55:44;60.13;;;27.45;;
13445;SDS011;6795;51.232;3.764;2023-09-30T08:58:15;61.15;;;26.48;;
13445;SDS011;6795;51.232;3.764;2023-09-30T09:00:45;55.53;;;24.85;;
13445;SDS011;6795;51.232;3.764;2023-09-30T09:03:15;53.05;;;21.63;;
13445;SDS011;6795;51.232;3.764;2023-09-30T09:05:44;49.17;;;20.52;;
13445;SDS011;6795;51.232;3.764;2023-09-30T09:08:12;42.92;;;19.88;;
13445;SDS011;6795;51.232;3.764;2023-09-30T09:10:53;44.65;;;17.45;;
13445;SDS011;6795;51.232;3.764;2023-09-30T09:13:25;36.83;;;15.85;;
13445;SDS011;6795;51.232;3.764;2023-09-30T09:16:06;37.28;;;14.63;;
13445;SDS011;6795;51.232;3.764;2023-09-30T09:18:35;33.47;;;13.48;;
13445;SDS011;6795;51.232;3.764;2023-09-30T09:21:10;38.08;;;14.02;;
13445;SDS011;6795;51.232;3.764;2023-09-30T09:23:42;38.22;;;12.63;;
13445;SDS011;6795;51.232;3.764;2023-09-30T09:26:11;31.77;;;12.35;;
13445;SDS011;6795;51.232;3.764;2023-09-30T09:28:57;29.58;;;11.07;;
13445;SDS011;6795;51.232;3.764;2023-09-30T09:31:27;25.92;;;10.68;;
13445;SDS011;6795;51.232;3.764;2023-09-30T09:33:56;27.58;;;10.38;;
13445;SDS011;6795;51.232;3.764;2023-09-30T09:36:38;30.27;;;9.85;;
13445;SDS011;6795;51.232;3.764;2023-09-30T09:39:08;24.92;;;9.05;;
13445;SDS011;6795;51.232;3.764;2023-09-30T09:41:48;22.20;;;8.00;;
13445;SDS011;6795;51.232;3.764;2023-09-30T09:44:20;19.00;;;7.32;;
13445;SDS011;6795;51.232;3.764;2023-09-30T09:46:49;18.00;;;6.30;;
13445;SDS011;6795;51.232;3.764;2023-09-30T09:49:19;15.80;;;5.90;;
13445;SDS011;6795;51.232;3.764;2023-09-30T09:51:48;19.08;;;5.75;;
13445;SDS011;6795;51.232;3.764;2023-09-30T09:54:18;20.58;;;6.35;;
13445;SDS011;6795;51.232;3.764;2023-09-30T09:56:48;14.82;;;4.95;;
13445;SDS011;6795;51.232;3.764;2023-09-30T09:59:22;13.43;;;4.88;;
13445;SDS011;6795;51.232;3.764;2023-09-30T10:01:52;13.77;;;5.25;;
13445;SDS011;6795;51.232;3.764;2023-09-30T10:04:21;16.35;;;6.57;;
13445;SDS011;6795;51.232;3.764;2023-09-30T10:06:50;17.17;;;6.25;;
13445;SDS011;6795;51.232;3.764;2023-09-30T10:09:22;17.85;;;6.70;;
13445;SDS011;6795;51.232;3.764;2023-09-30T10:11:56;17.30;;;5.68;;
13445;SDS011;6795;51.232;3.764;2023-09-30T10:14:33;15.32;;;5.35;;
13445;SDS011;6795;51.232;3.764;2023-09-30T10:17:02;16.50;;;7.07;;
13445;SDS011;6795;51.232;3.764;2023-09-30T10:19:31;18.10;;;6.88;;
13445;SDS011;6795;51.232;3.764;2023-09-30T10:22:20;17.48;;;6.90;;
13445;SDS011;6795;51.232;3.764;2023-09-30T10:24:50;14.40;;;6.97;;
13445;SDS011;6795;51.232;3.764;2023-09-30T10:27:27;19.80;;;7.90;;
13445;SDS011;6795;51.232;3.764;2023-09-30T10:29:59;15.95;;;8.07;;
13445;SDS011;6795;51.232;3.764;2023-09-30T10:35:43;15.73;;;8.10;;
13445;SDS011;6795;51.232;3.764;2023-09-30T10:41:04;11.32;;;6.25;;
13445;SDS011;6795;51.232;3.764;2023-09-30T10:43:34;16.40;;;7.32;;
13445;SDS011;6795;51.232;3.764;2023-09-30T10:49:17;20.13;;;9.20;;
13445;SDS011;6795;51.232;3.764;2023-09-30T10:52:02;18.58;;;8.00;;
13445;SDS011;6795;51.232;3.764;2023-09-30T10:54:31;15.95;;;8.77;;
13445;SDS011;6795;51.232;3.764;2023-09-30T10:57:01;16.25;;;7.40;;
13445;SDS011;6795;51.232;3.764;2023-09-30T10:59:31;15.82;;;7.68;;
13445;SDS011;6795;51.232;3.764;2023-09-30T11:02:03;15.02;;;7.35;;
13445;SDS011;6795;51.232;3.764;2023-09-30T11:04:45;15.38;;;5.78;;
13445;SDS011;6795;51.232;3.764;2023-09-30T11:07:17;13.32;;;5.45;;
13445;SDS011;6795;51.232;3.764;2023-09-30T11:09:50;18.85;;;5.35;;
13445;SDS011;6795;51.232;3.764;2023-09-30T11:12:18;14.30;;;5.72;;
13445;SDS011;6795;51.232;3.764;2023-09-30T11:14:47;14.60;;;3.58;;
13445;SDS011;6795;51.232;3.764;2023-09-30T11:17:28;13.32;;;3.05;;
13445;SDS011;6795;51.232;3.764;2023-09-30T11:19:56;16.17;;;4.05;;
13445;SDS011;6795;51.232;3.764;2023-09-30T11:22:26;10.90;;;3.10;;
13445;SDS011;6795;51.232;3.764;2023-09-30T11:24:54;8.70;;;2.22;;
13445;SDS011;6795;51.232;3.764;2023-09-30T11:27:23;12.40;;;2.95;;
13445;SDS011;6795;51.232;3.764;2023-09-30T11:29:53;12.07;;;2.60;;
13445;SDS011;6795;51.232;3.764;2023-09-30T11:32:25;10.65;;;2.70;;
13445;SDS011;6795;51.232;3.764;2023-09-30T11:34:57;8.85;;;1.90;;
13445;SDS011;6795;51.232;3.764;2023-09-30T11:37:30;10.95;;;2.58;;
13445;SDS011;6795;51.232;3.764;2023-09-30T11:40:08;10.43;;;2.65;;
13445;SDS011;6795;51.232;3.764;2023-09-30T11:42:37;14.20;;;2.90;;
13445;SDS011;6795;51.232;3.764;2023-09-30T11:45:18;10.00;;;2.20;;
13445;SDS011;6795;51.232;3.764;2023-09-30T11:47:49;8.23;;;2.13;;
13445;SDS011;6795;51.232;3.764;2023-09-30T11:50:19;6.05;;;1.75;;
13445;SDS011;6795;51.232;3.764;2023-09-30T11:52:47;7.40;;;2.05;;
13445;SDS011;6795;51.232;3.764;2023-09-30T11:55:15;10.55;;;1.70;;
13445;SDS011;6795;51.232;3.764;2023-09-30T11:57:47;7.32;;;1.90;;
13445;SDS011;6795;51.232;3.764;2023-09-30T12:00:17;8.10;;;1.67;;
13445;SDS011;6795;51.232;3.764;2023-09-30T12:02:45;9.98;;;1.75;;
13445;SDS011;6795;51.232;3.764;2023-09-30T12:05:14;9.63;;;2.22;;
13445;SDS011;6795;51.232;3.764;2023-09-30T12:07:44;7.78;;;1.77;;
13445;SDS011;6795;51.232;3.764;2023-09-30T12:10:13;5.60;;;1.65;;
13445;SDS011;6795;51.232;3.764;2023-09-30T12:12:42;11.20;;;1.88;;
13445;SDS011;6795;51.232;3.764;2023-09-30T12:15:11;10.50;;;2.33;;
13445;SDS011;6795;51.232;3.764;2023-09-30T12:17:40;7.82;;;1.70;;
13445;SDS011;6795;51.232;3.764;2023-09-30T12:20:09;9.60;;;1.83;;
13445;SDS011;6795;51.232;3.764;2023-09-30T12:22:40;9.63;;;1.77;;
13445;SDS011;6795;51.232;3.764;2023-09-30T12:25:10;9.32;;;1.58;;
13445;SDS011;6795;51.232;3.764;2023-09-30T12:27:39;7.60;;;1.15;;
13445;SDS011;6795;51.232;3.764;2023-09-30T12:30:07;9.10;;;1.60;;
13445;SDS011;6795;51.232;3.764;2023-09-30T12:32:36;7.82;;;1.55;;
13445;SDS011;6795;51.232;3.764;2023-09-30T12:35:06;10.25;;;1.88;;
13445;SDS011;6795;51.232;3.764;2023-09-30T12:37:36;5.05;;;1.20;;
13445;SDS011;6795;51.232;3.764;2023-09-30T12:40:07;5.63;;;0.85;;
13445;SDS011;6795;51.232;3.764;2023-09-30T12:42:39;9.15;;;1.65;;
13445;SDS011;6795;51.232;3.764;2023-09-30T12:45:09;5.82;;;1.13;;
13445;SDS011;6795;51.232;3.764;2023-09-30T12:47:37;9.00;;;1.58;;
13445;SDS011;6795;51.232;3.764;2023-09-30T12:50:06;5.43;;;1.05;;
13445;SDS011;6795;51.232;3.764;2023-09-30T12:52:38;9.98;;;1.67;;
13445;SDS011;6795;51.232;3.764;2023-09-30T12:55:07;7.18;;;1.38;;
13445;SDS011;6795;51.232;3.764;2023-09-30T12:57:36;7.75;;;1.30;;
13445;SDS011;6795;51.232;3.764;2023-09-30T13:00:08;5.90;;;0.98;;
13445;SDS011;6795;51.232;3.764;2023-09-30T13:02:37;7.78;;;1.15;;
13445;SDS011;6795;51.232;3.764;2023-09-30T13:05:06;5.60;;;1.45;;
13445;SDS011;6795;51.232;3.764;2023-09-30T13:07:34;5.85;;;1.23;;
13445;SDS011;6795;51.232;3.764;2023-09-30T13:10:03;5.03;;;1.00;;
13445;SDS011;6795;51.232;3.764;2023-09-30T13:12:34;7.95;;;1.45;;
13445;SDS011;6795;51.232;3.764;2023-09-30T13:15:03;6.35;;;1.33;;
13445;SDS011;6795;51.232;3.764;2023-09-30T13:17:33;5.65;;;1.58;;
13445;SDS011;6795;51.232;3.764;2023-09-30T13:20:02;7.28;;;1.40;;
13445;SDS011;6795;51.232;3.764;2023-09-30T13:22:31;6.78;;;1.52;;
13445;SDS011;6795;51.232;3.764;2023-09-30T13:25:00;7.25;;;1.35;;
13445;SDS011;6795;51.232;3.764;2023-09-30T13:27:29;5.70;;;1.17;;
13445;SDS011;6795;51.232;3.764;2023-09-30T13:29:58;5.45;;;1.20;;
13445;SDS011;6795;51.232;3.764;2023-09-30T13:32:26;4.60;;;0.90;;
13445;SDS011;6795;51.232;3.764;2023-09-30T13:34:56;5.18;;;1.48;;
13445;SDS011;6795;51.232;3.764;2023-09-30T13:37:25;10.98;;;1.75;;
13445;SDS011;6795;51.232;3.764;2023-09-30T13:39:59;6.38;;;1.00;;
13445;SDS011;6795;51.232;3.764;2023-09-30T13:42:28;12.95;;;2.42;;
13445;SDS011;6795;51.232;3.764;2023-09-30T13:44:57;7.20;;;1.23;;
13445;SDS011;6795;51.232;3.764;2023-09-30T13:47:25;7.50;;;1.10;;
13445;SDS011;6795;51.232;3.764;2023-09-30T13:49:54;8.88;;;1.63;;
13445;SDS011;6795;51.232;3.764;2023-09-30T13:52:24;7.97;;;1.33;;
13445;SDS011;6795;51.232;3.764;2023-09-30T13:54:53;6.63;;;1.38;;
13445;SDS011;6795;51.232;3.764;2023-09-30T13:57:22;7.47;;;1.30;;
13445;SDS011;6795;51.232;3.764;2023-09-30T13:59:50;6.10;;;1.00;;
13445;SDS011;6795;51.232;3.764;2023-09-30T14:02:19;8.45;;;1.30;;
13445;SDS011;6795;51.232;3.764;2023-09-30T14:04:47;6.72;;;1.73;;
13445;SDS011;6795;51.232;3.764;2023-09-30T14:07:17;5.50;;;1.23;;
13445;SDS011;6795;51.232;3.764;2023-09-30T14:09:45;7.05;;;1.48;;
13445;SDS011;6795;51.232;3.764;2023-09-30T14:12:14;6.28;;;1.20;;
13445;SDS011;6795;51.232;3.764;2023-09-30T14:14:42;6.03;;;1.45;;
13445;SDS011;6795;51.232;3.764;2023-09-30T14:17:11;5.68;;;1.58;;
13445;SDS011;6795;51.232;3.764;2023-09-30T14:19:41;9.15;;;1.25;;
13445;SDS011;6795;51.232;3.764;2023-09-30T14:22:09;3.55;;;1.30;;
13445;SDS011;6795;51.232;3.764;2023-09-30T14:24:39;11.23;;;1.60;;
13445;SDS011;6795;51.232;3.764;2023-09-30T14:27:08;5.10;;;1.17;;
13445;SDS011;6795;51.232;3.764;2023-09-30T14:29:36;3.88;;;0.95;;
13445;SDS011;6795;51.232;3.764;2023-09-30T14:32:05;8.18;;;1.88;;
13445;SDS011;6795;51.232;3.764;2023-09-30T14:34:33;9.20;;;1.15;;
13445;SDS011;6795;51.232;3.764;2023-09-30T14:37:02;7.25;;;1.70;;
13445;SDS011;6795;51.232;3.764;2023-09-30T14:39:30;4.47;;;1.23;;
13445;SDS011;6795;51.232;3.764;2023-09-30T14:42:00;5.90;;;1.35;;
13445;SDS011;6795;51.232;3.764;2023-09-30T14:44:28;6.18;;;1.20;;
13445;SDS011;6795;51.232;3.764;2023-09-30T14:46:57;5.05;;;1.02;;
13445;SDS011;6795;51.232;3.764;2023-09-30T14:49:25;9.88;;;1.92;;
13445;SDS011;6795;51.232;3.764;2023-09-30T14:51:55;7.45;;;1.50;;
13445;SDS011;6795;51.232;3.764;2023-09-30T14:54:24;5.90;;;1.55;;
13445;SDS011;6795;51.232;3.764;2023-09-30T14:56:53;9.18;;;1.30;;
13445;SDS011;6795;51.232;3.764;2023-09-30T14:59:23;6.05;;;1.33;;
13445;SDS011;6795;51.232;3.764;2023-09-30T15:01:51;11.15;;;1.23;;
13445;SDS011;6795;51.232;3.764;2023-09-30T15:04:20;6.15;;;1.42;;